sensor_id;sensor_type;location;lat;lon;timestamp;pressure;altitude;pressure_sealevel;temperature;humidity
49759;BME280;70329;45.524;10.194;2024-02-14T00:00:11;100799.38;;;7.85;100.00
49759;BME280;70329;45.524;10.194;2024-02-14T00:02:39;100795.69;;;7.91;100.00
49759;BME280;70329;45.524;10.194;2024-02-14T00:05:07;100801.41;;;7.89;100.00
49759;BME280;70329;45.524;10.194;2024-02-14T00:07:37;100802.19;;;7.73;100.00
49759;BME280;70329;45.524;10.194;2024-02-14T00:10:05;100801.09;;;7.74;100.00
49759;BME280;70329;45.524;10.194;2024-02-14T00:12:32;100798.75;;;7.66;100.00
49759;BME280;70329;45.524;10.194;2024-02-14T00:14:58;100804.28;;;7.71;100.00
49759;BME280;70329;45.524;10.194;2024-02-14T00:17:29;100803.81;;;7.74;100.00
49759;BME280;70329;45.524;10.194;2024-02-14T00:19:56;100809.53;;;7.73;100.00
49759;BME280;70329;45.524;10.194;2024-02-14T00:22:24;100810.00;;;7.70;100.00
49759;BME280;70329;45.524;10.194;2024-02-14T00:24:51;100801.25;;;7.68;100.00
49759;BME280;70329;45.524;10.194;2024-02-14T00:27:17;100814.06;;;7.55;100.00
49759;BME280;70329;45.524;10.194;2024-02-14T00:29:44;100808.13;;;7.58;100.00
49759;BME280;70329;45.524;10.194;2024-02-14T00:32:12;100804.56;;;7.58;100.00
49759;BME280;70329;45.524;10.194;2024-02-14T00:34:38;100799.97;;;7.58;100.00
49759;BME280;70329;45.524;10.194;2024-02-14T00:37:05;100801.47;;;7.66;100.00
49759;BME280;70329;45.524;10.194;2024-02-14T00:39:33;100806.69;;;7.68;100.00
49759;BME280;70329;45.524;10.194;2024-02-14T00:42:00;100802.75;;;7.75;100.00
49759;BME280;70329;45.524;10.194;2024-02-14T00:44:26;100804.78;;;7.68;100.00
49759;BME280;70329;45.524;10.194;2024-02-14T00:46:56;100797.22;;;7.70;100.00
49759;BME280;70329;45.524;10.194;2024-02-14T00:49:24;100801.44;;;7.78;100.00
49759;BME280;70329;45.524;10.194;2024-02-14T00:51:51;100814.38;;;7.71;100.00
49759;BME280;70329;45.524;10.194;2024-02-14T00:54:17;100809.75;;;7.71;100.00
49759;BME280;70329;45.524;10.194;2024-02-14T00:56:46;100810.69;;;7.77;100.00
49759;BME280;70329;45.524;10.194;2024-02-14T00:59:12;100819.41;;;7.62;100.00
49759;BME280;70329;45.524;10.194;2024-02-14T01:01:39;100812.09;;;7.79;100.00
49759;BME280;70329;45.524;10.194;2024-02-14T01:04:05;100815.28;;;7.88;97.62
49759;BME280;70329;45.524;10.194;2024-02-14T01:06:32;100823.63;;;7.70;99.58
49759;BME280;70329;45.524;10.194;2024-02-14T01:08:58;100819.81;;;7.71;99.45
49759;BME280;70329;45.524;10.194;2024-02-14T01:11:25;100817.34;;;7.69;99.59
49759;BME280;70329;45.524;10.194;2024-02-14T01:14:06;100815.81;;;7.73;100.00
49759;BME280;70329;45.524;10.194;2024-02-14T01:16:42;100812.72;;;7.81;98.49
49759;BME280;70329;45.524;10.194;2024-02-14T01:19:10;100817.53;;;7.79;99.96
49759;BME280;70329;45.524;10.194;2024-02-14T01:21:36;100818.28;;;7.75;100.00
49759;BME280;70329;45.524;10.194;2024-02-14T01:24:04;100814.44;;;7.87;99.30
49759;BME280;70329;45.524;10.194;2024-02-14T01:26:31;100806.25;;;7.87;100.00
49759;BME280;70329;45.524;10.194;2024-02-14T01:28:59;100815.75;;;7.85;99.53
49759;BME280;70329;45.524;10.194;2024-02-14T01:31:26;100818.97;;;7.82;100.00
49759;BME280;70329;45.524;10.194;2024-02-14T01:33:53;100823.47;;;7.76;100.00
49759;BME280;70329;45.524;10.194;2024-02-14T01:36:19;100824.00;;;7.73;100.00
49759;BME280;70329;45.524;10.194;2024-02-14T01:38:46;100822.69;;;7.64;100.00
49759;BME280;70329;45.524;10.194;2024-02-14T01:41:13;100826.59;;;7.68;100.00
49759;BME280;70329;45.524;10.194;2024-02-14T01:43:39;100830.03;;;7.63;100.00
49759;BME280;70329;45.524;10.194;2024-02-14T01:46:07;100823.25;;;7.78;100.00
49759;BME280;70329;45.524;10.194;2024-02-14T01:48:34;100822.53;;;7.82;100.00
49759;BME280;70329;45.524;10.194;2024-02-14T01:51:02;100818.63;;;7.78;100.00
49759;BME280;70329;45.524;10.194;2024-02-14T01:53:31;100816.50;;;7.80;100.00
49759;BME280;70329;45.524;10.194;2024-02-14T01:55:59;100816.75;;;7.79;100.00
49759;BME280;70329;45.524;10.194;2024-02-14T01:58:26;100811.03;;;7.80;100.00
49759;BME280;70329;45.524;10.194;2024-02-14T02:00:53;100813.31;;;7.72;100.00
49759;BME280;70329;45.524;10.194;2024-02-14T02:03:23;100810.78;;;7.82;99.53
49759;BME280;70329;45.524;10.194;2024-02-14T02:05:50;100813.50;;;7.82;100.00
49759;BME280;70329;45.524;10.194;2024-02-14T02:08:17;100824.09;;;7.78;100.00
49759;BME280;70329;45.524;10.194;2024-02-14T02:10:44;100827.97;;;7.82;100.00
49759;BME280;70329;45.524;10.194;2024-02-14T02:13:11;100829.25;;;7.91;100.00
49759;BME280;70329;45.524;10.194;2024-02-14T02:15:37;100832.81;;;7.92;99.12
49759;BME280;70329;45.524;10.194;2024-02-14T02:18:05;100831.72;;;7.93;98.59
49759;BME280;70329;45.524;10.194;2024-02-14T02:20:34;100830.66;;;7.94;99.57
49759;BME280;70329;45.524;10.194;2024-02-14T02:23:02;100838.75;;;7.89;100.00
49759;BME280;70329;45.524;10.194;2024-02-14T02:25:32;100852.63;;;7.87;100.00
49759;BME280;70329;45.524;10.194;2024-02-14T02:27:59;100846.09;;;7.88;100.00
49759;BME280;70329;45.524;10.194;2024-02-14T02:30:26;100845.16;;;7.83;100.00
49759;BME280;70329;45.524;10.194;2024-02-14T02:32:54;100844.78;;;7.91;100.00
49759;BME280;70329;45.524;10.194;2024-02-14T02:35:22;100845.16;;;7.83;100.00
49759;BME280;70329;45.524;10.194;2024-02-14T02:37:49;100841.59;;;7.82;100.00
49759;BME280;70329;45.524;10.194;2024-02-14T02:40:19;100847.69;;;7.84;100.00
49759;BME280;70329;45.524;10.194;2024-02-14T02:42:46;100846.97;;;7.77;100.00
49759;BME280;70329;45.524;10.194;2024-02-14T02:45:13;100842.69;;;7.81;100.00
49759;BME280;70329;45.524;10.194;2024-02-14T02:47:39;100855.13;;;7.77;100.00
49759;BME280;70329;45.524;10.194;2024-02-14T02:50:06;100848.75;;;7.72;100.00
49759;BME280;70329;45.524;10.194;2024-02-14T02:52:33;100849.72;;;7.66;100.00
49759;BME280;70329;45.524;10.194;2024-02-14T02:55:00;100857.41;;;7.69;100.00
49759;BME280;70329;45.524;10.194;2024-02-14T02:57:28;100861.22;;;7.68;100.00
49759;BME280;70329;45.524;10.194;2024-02-14T02:59:58;100866.53;;;7.62;100.00
49759;BME280;70329;45.524;10.194;2024-02-14T03:02:25;100865.13;;;7.60;100.00
49759;BME280;70329;45.524;10.194;2024-02-14T03:04:51;100857.31;;;7.63;100.00
49759;BME280;70329;45.524;10.194;2024-02-14T03:07:20;100870.34;;;7.61;100.00
49759;BME280;70329;45.524;10.194;2024-02-14T03:09:49;100860.97;;;7.69;100.00
49759;BME280;70329;45.524;10.194;2024-02-14T03:12:18;100861.81;;;7.70;100.00
49759;BME280;70329;45.524;10.194;2024-02-14T03:14:47;100858.00;;;7.71;100.00
49759;BME280;70329;45.524;10.194;2024-02-14T03:17:14;100861.34;;;7.61;100.00
49759;BME280;70329;45.524;10.194;2024-02-14T03:19:41;100865.84;;;7.44;100.00
49759;BME280;70329;45.524;10.194;2024-02-14T03:22:07;100864.81;;;7.45;100.00
49759;BME280;70329;45.524;10.194;2024-02-14T03:24:36;100855.22;;;7.42;100.00
49759;BME280;70329;45.524;10.194;2024-02-14T03:27:04;100862.44;;;7.37;100.00
49759;BME280;70329;45.524;10.194;2024-02-14T03:29:32;100863.25;;;7.37;100.00
49759;BME280;70329;45.524;10.194;2024-02-14T03:32:02;100857.09;;;7.30;100.00
49759;BME280;70329;45.524;10.194;2024-02-14T03:34:30;100867.75;;;7.43;100.00
49759;BME280;70329;45.524;10.194;2024-02-14T03:36:59;100859.47;;;7.38;100.00
49759;BME280;70329;45.524;10.194;2024-02-14T03:39:28;100861.25;;;7.33;100.00
49759;BME280;70329;45.524;10.194;2024-02-14T03:41:55;100865.75;;;7.50;100.00
49759;BME280;70329;45.524;10.194;2024-02-14T03:44:22;100861.34;;;7.49;100.00
49759;BME280;70329;45.524;10.194;2024-02-14T03:46:49;100871.06;;;7.45;100.00
49759;BME280;70329;45.524;10.194;2024-02-14T03:49:22;100869.16;;;7.57;100.00
49759;BME280;70329;45.524;10.194;2024-02-14T03:51:52;100872.97;;;7.56;100.00
49759;BME280;70329;45.524;10.194;2024-02-14T03:54:21;100871.78;;;7.52;100.00
49759;BME280;70329;45.524;10.194;2024-02-14T03:56:49;100873.56;;;7.47;100.00
49759;BME280;70329;45.524;10.194;2024-02-14T03:59:18;100874.88;;;7.56;100.00
49759;BME280;70329;45.524;10.194;2024-02-14T04:01:50;100877.59;;;7.56;100.00
49759;BME280;70329;45.524;10.194;2024-02-14T04:04:21;100875.81;;;7.50;100.00
49759;BME280;70329;45.524;10.194;2024-02-14T04:06:48;100879.59;;;7.49;100.00
49759;BME280;70329;45.524;10.194;2024-02-14T04:09:16;100876.19;;;7.42;100.00
49759;BME280;70329;45.524;10.194;2024-02-14T04:11:42;100885.88;;;7.38;100.00
49759;BME280;70329;45.524;10.194;2024-02-14T04:14:10;100876.75;;;7.44;100.00
49759;BME280;70329;45.524;10.194;2024-02-14T04:16:37;100883.03;;;7.33;100.00
49759;BME280;70329;45.524;10.194;2024-02-14T04:19:04;100890.50;;;7.37;100.00
49759;BME280;70329;45.524;10.194;2024-02-14T04:21:32;100886.50;;;7.28;100.00
49759;BME280;70329;45.524;10.194;2024-02-14T04:23:59;100894.28;;;7.25;100.00
49759;BME280;70329;45.524;10.194;2024-02-14T04:26:26;100892.03;;;7.22;100.00
49759;BME280;70329;45.524;10.194;2024-02-14T04:28:53;100890.16;;;7.22;100.00
49759;BME280;70329;45.524;10.194;2024-02-14T04:31:19;100891.69;;;7.30;100.00
49759;BME280;70329;45.524;10.194;2024-02-14T04:33:48;100900.09;;;7.40;100.00
49759;BME280;70329;45.524;10.194;2024-02-14T04:36:17;100897.84;;;7.25;100.00
49759;BME280;70329;45.524;10.194;2024-02-14T04:38:46;100895.81;;;7.09;100.00
49759;BME280;70329;45.524;10.194;2024-02-14T04:41:15;100901.03;;;7.11;100.00
49759;BME280;70329;45.524;10.194;2024-02-14T04:43:42;100896.75;;;7.15;100.00
49759;BME280;70329;45.524;10.194;2024-02-14T04:46:08;100902.09;;;7.10;100.00
49759;BME280;70329;45.524;10.194;2024-02-14T04:48:35;100899.47;;;7.15;100.00
49759;BME280;70329;45.524;10.194;2024-02-14T04:51:02;100893.34;;;7.08;100.00
49759;BME280;70329;45.524;10.194;2024-02-14T04:53:30;100902.22;;;7.03;100.00
49759;BME280;70329;45.524;10.194;2024-02-14T04:55:57;100902.22;;;7.03;100.00
49759;BME280;70329;45.524;10.194;2024-02-14T04:58:26;100894.16;;;7.08;100.00
49759;BME280;70329;45.524;10.194;2024-02-14T05:00:53;100900.66;;;7.07;100.00
49759;BME280;70329;45.524;10.194;2024-02-14T05:03:20;100895.34;;;7.00;100.00
49759;BME280;70329;45.524;10.194;2024-02-14T05:05:48;100897.22;;;7.00;100.00
49759;BME280;70329;45.524;10.194;2024-02-14T05:08:14;100896.63;;;7.10;100.00
49759;BME280;70329;45.524;10.194;2024-02-14T05:10:41;100903.03;;;7.03;100.00
49759;BME280;70329;45.524;10.194;2024-02-14T05:13:09;100912.50;;;7.01;100.00
49759;BME280;70329;45.524;10.194;2024-02-14T05:15:36;100913.53;;;6.88;100.00
49759;BME280;70329;45.524;10.194;2024-02-14T05:18:01;100921.00;;;6.93;100.00
49759;BME280;70329;45.524;10.194;2024-02-14T05:20:28;100924.91;;;6.85;100.00
49759;BME280;70329;45.524;10.194;2024-02-14T05:22:54;100936.63;;;6.86;100.00
49759;BME280;70329;45.524;10.194;2024-02-14T05:25:21;100932.03;;;6.86;100.00
49759;BME280;70329;45.524;10.194;2024-02-14T05:27:48;100931.78;;;6.88;100.00
49759;BME280;70329;45.524;10.194;2024-02-14T05:30:16;100932.16;;;6.91;100.00
49759;BME280;70329;45.524;10.194;2024-02-14T05:32:42;100941.59;;;6.89;100.00
49759;BME280;70329;45.524;10.194;2024-02-14T05:35:09;100935.25;;;6.95;100.00
49759;BME280;70329;45.524;10.194;2024-02-14T05:37:36;100931.06;;;6.92;100.00
49759;BME280;70329;45.524;10.194;2024-02-14T05:40:04;100944.34;;;6.89;100.00
49759;BME280;70329;45.524;10.194;2024-02-14T05:42:32;100950.81;;;6.88;100.00
49759;BME280;70329;45.524;10.194;2024-02-14T05:44:59;100948.91;;;6.77;100.00
49759;BME280;70329;45.524;10.194;2024-02-14T05:47:30;100948.41;;;6.68;100.00
49759;BME280;70329;45.524;10.194;2024-02-14T05:49:57;100952.03;;;6.62;100.00
49759;BME280;70329;45.524;10.194;2024-02-14T05:52:24;100945.88;;;6.55;100.00
49759;BME280;70329;45.524;10.194;2024-02-14T05:54:51;100954.09;;;6.49;100.00
49759;BME280;70329;45.524;10.194;2024-02-14T05:57:20;100947.47;;;6.44;100.00
49759;BME280;70329;45.524;10.194;2024-02-14T05:59:48;100947.25;;;6.46;100.00
49759;BME280;70329;45.524;10.194;2024-02-14T06:02:16;100948.28;;;6.45;100.00
49759;BME280;70329;45.524;10.194;2024-02-14T06:04:45;100952.09;;;6.44;100.00
49759;BME280;70329;45.524;10.194;2024-02-14T06:07:13;100950.84;;;6.58;100.00
49759;BME280;70329;45.524;10.194;2024-02-14T06:09:41;100955.84;;;6.61;100.00
49759;BME280;70329;45.524;10.194;2024-02-14T06:12:09;100953.47;;;6.65;100.00
49759;BME280;70329;45.524;10.194;2024-02-14T06:14:37;100947.94;;;6.71;100.00
49759;BME280;70329;45.524;10.194;2024-02-14T06:17:07;100955.50;;;6.69;100.00
49759;BME280;70329;45.524;10.194;2024-02-14T06:19:34;100963.22;;;6.72;100.00
49759;BME280;70329;45.524;10.194;2024-02-14T06:22:03;100952.78;;;6.69;100.00
49759;BME280;70329;45.524;10.194;2024-02-14T06:24:31;100958.22;;;6.69;100.00
49759;BME280;70329;45.524;10.194;2024-02-14T06:26:59;100962.06;;;6.80;100.00
49759;BME280;70329;45.524;10.194;2024-02-14T06:29:25;100972.34;;;6.78;100.00
49759;BME280;70329;45.524;10.194;2024-02-14T06:31:52;100966.44;;;6.81;100.00
49759;BME280;70329;45.524;10.194;2024-02-14T06:34:20;100963.94;;;6.79;100.00
49759;BME280;70329;45.524;10.194;2024-02-14T06:36:48;100970.34;;;6.85;100.00
49759;BME280;70329;45.524;10.194;2024-02-14T06:39:16;100968.38;;;6.92;100.00
49759;BME280;70329;45.524;10.194;2024-02-14T06:41:43;100973.38;;;6.95;100.00
49759;BME280;70329;45.524;10.194;2024-02-14T06:44:10;100976.69;;;6.97;100.00
49759;BME280;70329;45.524;10.194;2024-02-14T06:46:38;100983.16;;;6.96;100.00
49759;BME280;70329;45.524;10.194;2024-02-14T06:49:07;100990.97;;;6.92;100.00
49759;BME280;70329;45.524;10.194;2024-02-14T06:51:34;100994.31;;;6.94;100.00
49759;BME280;70329;45.524;10.194;2024-02-14T06:54:18;100993.56;;;6.87;100.00
49759;BME280;70329;45.524;10.194;2024-02-14T06:56:45;100993.81;;;6.86;100.00
49759;BME280;70329;45.524;10.194;2024-02-14T06:59:11;100993.69;;;6.92;100.00
49759;BME280;70329;45.524;10.194;2024-02-14T07:01:38;101002.09;;;6.91;100.00
49759;BME280;70329;45.524;10.194;2024-02-14T07:04:04;101003.53;;;6.93;100.00
49759;BME280;70329;45.524;10.194;2024-02-14T07:06:31;101003.78;;;6.92;100.00
49759;BME280;70329;45.524;10.194;2024-02-14T07:08:57;101011.25;;;6.96;100.00
49759;BME280;70329;45.524;10.194;2024-02-14T07:11:30;101018.03;;;7.06;100.00
49759;BME280;70329;45.524;10.194;2024-02-14T07:14:01;101017.09;;;7.12;100.00
49759;BME280;70329;45.524;10.194;2024-02-14T07:16:28;101015.31;;;7.06;100.00
49759;BME280;70329;45.524;10.194;2024-02-14T07:18:55;101021.47;;;7.13;100.00
49759;BME280;70329;45.524;10.194;2024-02-14T07:21:21;101030.72;;;7.23;100.00
49759;BME280;70329;45.524;10.194;2024-02-14T07:23:48;101032.66;;;7.34;100.00
49759;BME280;70329;45.524;10.194;2024-02-14T07:26:15;101038.25;;;7.39;100.00
49759;BME280;70329;45.524;10.194;2024-02-14T07:28:43;101033.78;;;7.45;100.00
49759;BME280;70329;45.524;10.194;2024-02-14T07:31:11;101036.63;;;7.50;100.00
49759;BME280;70329;45.524;10.194;2024-02-14T07:33:40;101048.34;;;7.50;100.00
49759;BME280;70329;45.524;10.194;2024-02-14T07:36:09;101049.41;;;7.49;100.00
49759;BME280;70329;45.524;10.194;2024-02-14T07:38:36;101050.47;;;7.48;100.00
49759;BME280;70329;45.524;10.194;2024-02-14T07:41:02;101051.31;;;7.49;100.00
49759;BME280;70329;45.524;10.194;2024-02-14T07:43:29;101058.19;;;7.51;100.00
49759;BME280;70329;45.524;10.194;2024-02-14T07:45:57;101062.81;;;7.62;100.00
49759;BME280;70329;45.524;10.194;2024-02-14T07:48:24;101063.94;;;7.73;100.00
49759;BME280;70329;45.524;10.194;2024-02-14T07:50:52;101058.34;;;7.80;100.00
49759;BME280;70329;45.524;10.194;2024-02-14T07:53:19;101062.59;;;7.87;100.00
49759;BME280;70329;45.524;10.194;2024-02-14T07:55:47;101069.28;;;7.91;100.00
49759;BME280;70329;45.524;10.194;2024-02-14T07:58:17;101071.63;;;7.99;100.00
49759;BME280;70329;45.524;10.194;2024-02-14T08:00:44;101078.88;;;8.05;100.00
49759;BME280;70329;45.524;10.194;2024-02-14T08:03:12;101093.00;;;8.14;100.00
49759;BME280;70329;45.524;10.194;2024-02-14T08:05:39;101092.91;;;8.32;100.00
49759;BME280;70329;45.524;10.194;2024-02-14T08:08:08;101087.78;;;8.36;100.00
49759;BME280;70329;45.524;10.194;2024-02-14T08:10:38;101095.41;;;8.45;100.00
49759;BME280;70329;45.524;10.194;2024-02-14T08:13:05;101094.19;;;8.53;100.00
49759;BME280;70329;45.524;10.194;2024-02-14T08:15:31;101093.69;;;8.67;100.00
49759;BME280;70329;45.524;10.194;2024-02-14T08:17:58;101090.69;;;8.81;100.00
49759;BME280;70329;45.524;10.194;2024-02-14T08:20:26;101079.16;;;8.90;98.03
49759;BME280;70329;45.524;10.194;2024-02-14T08:22:53;101083.59;;;9.08;95.25
49759;BME280;70329;45.524;10.194;2024-02-14T08:25:19;101078.47;;;9.11;96.24
49759;BME280;70329;45.524;10.194;2024-02-14T08:27:46;101075.44;;;9.24;96.60
49759;BME280;70329;45.524;10.194;2024-02-14T08:30:13;101077.28;;;9.35;96.94
49759;BME280;70329;45.524;10.194;2024-02-14T08:32:40;101082.47;;;9.49;94.70
49759;BME280;70329;45.524;10.194;2024-02-14T08:35:07;101078.09;;;9.64;90.69
49759;BME280;70329;45.524;10.194;2024-02-14T08:37:36;101067.16;;;9.81;87.91
49759;BME280;70329;45.524;10.194;2024-02-14T08:40:04;101065.50;;;9.97;87.05
49759;BME280;70329;45.524;10.194;2024-02-14T08:42:32;101064.25;;;10.04;85.97
49759;BME280;70329;45.524;10.194;2024-02-14T08:44:59;101059.41;;;10.11;85.67
49759;BME280;70329;45.524;10.194;2024-02-14T08:47:27;101053.63;;;10.24;82.74
49759;BME280;70329;45.524;10.194;2024-02-14T08:49:54;101064.06;;;10.27;80.81
49759;BME280;70329;45.524;10.194;2024-02-14T08:52:21;101063.06;;;10.33;81.84
49759;BME280;70329;45.524;10.194;2024-02-14T08:54:49;101057.22;;;10.46;80.33
49759;BME280;70329;45.524;10.194;2024-02-14T08:57:15;101062.56;;;10.58;80.02
49759;BME280;70329;45.524;10.194;2024-02-14T08:59:45;101057.06;;;10.75;79.05
49759;BME280;70329;45.524;10.194;2024-02-14T09:02:14;101052.81;;;10.89;75.24
49759;BME280;70329;45.524;10.194;2024-02-14T09:04:42;101052.44;;;11.02;74.95
49759;BME280;70329;45.524;10.194;2024-02-14T09:07:09;101053.94;;;11.15;72.15
49759;BME280;70329;45.524;10.194;2024-02-14T09:09:40;101055.69;;;11.26;73.14
49759;BME280;70329;45.524;10.194;2024-02-14T09:12:13;101057.22;;;11.38;75.24
49759;BME280;70329;45.524;10.194;2024-02-14T09:14:44;101068.91;;;11.55;74.80
49759;BME280;70329;45.524;10.194;2024-02-14T09:17:10;101063.31;;;11.72;73.09
49759;BME280;70329;45.524;10.194;2024-02-14T09:19:37;101056.03;;;11.88;72.41
49759;BME280;70329;45.524;10.194;2024-02-14T09:22:03;101055.84;;;11.99;73.50
49759;BME280;70329;45.524;10.194;2024-02-14T09:24:31;101058.13;;;12.12;74.29
49759;BME280;70329;45.524;10.194;2024-02-14T09:26:58;101065.88;;;12.20;74.44
49759;BME280;70329;45.524;10.194;2024-02-14T09:29:28;101060.72;;;12.29;74.11
49759;BME280;70329;45.524;10.194;2024-02-14T09:31:55;101054.72;;;12.37;72.65
49759;BME280;70329;45.524;10.194;2024-02-14T09:34:23;101056.44;;;12.48;72.46
49759;BME280;70329;45.524;10.194;2024-02-14T09:36:50;101061.75;;;12.65;71.03
49759;BME280;70329;45.524;10.194;2024-02-14T09:39:20;101067.88;;;12.82;69.68
49759;BME280;70329;45.524;10.194;2024-02-14T09:41:51;101067.94;;;12.92;68.81
49759;BME280;70329;45.524;10.194;2024-02-14T09:44:21;101066.81;;;12.98;68.81
49759;BME280;70329;45.524;10.194;2024-02-14T09:46:51;101067.66;;;12.99;68.23
49759;BME280;70329;45.524;10.194;2024-02-14T09:49:20;101064.91;;;13.04;68.76
49759;BME280;70329;45.524;10.194;2024-02-14T09:51:48;101064.91;;;13.04;69.23
49759;BME280;70329;45.524;10.194;2024-02-14T09:54:16;101065.84;;;13.14;71.38
49759;BME280;70329;45.524;10.194;2024-02-14T09:56:47;101067.75;;;13.24;68.35
49759;BME280;70329;45.524;10.194;2024-02-14T09:59:16;101056.25;;;13.37;68.09
49759;BME280;70329;45.524;10.194;2024-02-14T10:01:43;101054.88;;;13.39;69.18
49759;BME280;70329;45.524;10.194;2024-02-14T10:04:12;101059.31;;;13.51;69.47
49759;BME280;70329;45.524;10.194;2024-02-14T10:06:39;101056.00;;;13.59;70.45
49759;BME280;70329;45.524;10.194;2024-02-14T10:09:05;101055.75;;;13.70;69.76
49759;BME280;70329;45.524;10.194;2024-02-14T10:11:32;101054.34;;;13.58;68.33
49759;BME280;70329;45.524;10.194;2024-02-14T10:14:00;101056.53;;;13.71;70.21
49759;BME280;70329;45.524;10.194;2024-02-14T10:16:30;101059.31;;;13.86;70.55
49759;BME280;70329;45.524;10.194;2024-02-14T10:18:59;101054.63;;;13.86;69.05
49759;BME280;70329;45.524;10.194;2024-02-14T10:21:36;101055.72;;;13.90;70.12
49759;BME280;70329;45.524;10.194;2024-02-14T10:24:07;101062.88;;;14.01;70.34
49759;BME280;70329;45.524;10.194;2024-02-14T10:26:37;101060.16;;;14.07;70.57
49759;BME280;70329;45.524;10.194;2024-02-14T10:29:06;101060.41;;;13.85;72.66
49759;BME280;70329;45.524;10.194;2024-02-14T10:31:37;101064.81;;;13.91;72.31
49759;BME280;70329;45.524;10.194;2024-02-14T10:34:06;101075.84;;;13.86;73.64
49759;BME280;70329;45.524;10.194;2024-02-14T10:36:41;101077.22;;;14.04;73.58
49759;BME280;70329;45.524;10.194;2024-02-14T10:39:09;101083.81;;;14.08;77.14
49759;BME280;70329;45.524;10.194;2024-02-14T10:41:37;101088.75;;;14.16;79.14
49759;BME280;70329;45.524;10.194;2024-02-14T10:44:04;101082.44;;;14.10;79.32
49759;BME280;70329;45.524;10.194;2024-02-14T10:46:33;101083.00;;;14.12;76.41
49759;BME280;70329;45.524;10.194;2024-02-14T10:49:03;101083.81;;;14.02;76.07
49759;BME280;70329;45.524;10.194;2024-02-14T10:51:31;101086.59;;;13.97;76.56
49759;BME280;70329;45.524;10.194;2024-02-14T10:54:04;101080.81;;;14.04;74.13
49759;BME280;70329;45.524;10.194;2024-02-14T10:56:33;101081.91;;;14.03;71.69
49759;BME280;70329;45.524;10.194;2024-02-14T10:59:02;101065.94;;;13.95;68.22
49759;BME280;70329;45.524;10.194;2024-02-14T11:01:32;101077.50;;;13.87;71.26
49759;BME280;70329;45.524;10.194;2024-02-14T11:04:01;101066.75;;;14.00;71.57
49759;BME280;70329;45.524;10.194;2024-02-14T11:06:30;101060.41;;;14.15;70.34
49759;BME280;70329;45.524;10.194;2024-02-14T11:08:57;101063.97;;;14.11;70.61
49759;BME280;70329;45.524;10.194;2024-02-14T11:11:29;101059.84;;;14.08;70.86
49759;BME280;70329;45.524;10.194;2024-02-14T11:13:57;101058.47;;;14.11;67.73
49759;BME280;70329;45.524;10.194;2024-02-14T11:16:25;101061.50;;;14.14;66.39
49759;BME280;70329;45.524;10.194;2024-02-14T11:18:53;101061.22;;;14.11;64.36
49759;BME280;70329;45.524;10.194;2024-02-14T11:21:27;101070.06;;;14.02;66.81
49759;BME280;70329;45.524;10.194;2024-02-14T11:23:54;101069.50;;;13.90;69.39
49759;BME280;70329;45.524;10.194;2024-02-14T11:26:21;101073.91;;;13.86;68.19
49759;BME280;70329;45.524;10.194;2024-02-14T11:28:59;101060.97;;;13.87;65.60
49759;BME280;70329;45.524;10.194;2024-02-14T11:31:32;101062.88;;;14.01;62.99
49759;BME280;70329;45.524;10.194;2024-02-14T11:34:03;101047.19;;;14.02;61.83
49759;BME280;70329;45.524;10.194;2024-02-14T11:36:31;101049.94;;;14.07;62.08
49759;BME280;70329;45.524;10.194;2024-02-14T11:38:58;101043.88;;;14.05;62.45
49759;BME280;70329;45.524;10.194;2024-02-14T11:41:27;101031.22;;;14.04;61.36
49759;BME280;70329;45.524;10.194;2024-02-14T11:43:55;101031.75;;;14.06;62.98
49759;BME280;70329;45.524;10.194;2024-02-14T11:46:22;101024.84;;;14.19;61.12
49759;BME280;70329;45.524;10.194;2024-02-14T11:48:49;101025.69;;;14.14;59.90
49759;BME280;70329;45.524;10.194;2024-02-14T11:51:18;101029.81;;;14.17;59.80
49759;BME280;70329;45.524;10.194;2024-02-14T11:53:45;101036.44;;;14.21;60.62
49759;BME280;70329;45.524;10.194;2024-02-14T11:56:11;101030.63;;;14.22;62.17
49759;BME280;70329;45.524;10.194;2024-02-14T11:58:38;101032.56;;;14.22;63.58
49759;BME280;70329;45.524;10.194;2024-02-14T12:01:06;101045.25;;;14.18;65.13
49759;BME280;70329;45.524;10.194;2024-02-14T12:03:34;101045.78;;;14.20;64.63
49759;BME280;70329;45.524;10.194;2024-02-14T12:06:04;101042.19;;;14.19;64.23
49759;BME280;70329;45.524;10.194;2024-02-14T12:08:31;101029.81;;;14.17;65.39
49759;BME280;70329;45.524;10.194;2024-02-14T12:10:58;101025.44;;;14.06;67.29
49759;BME280;70329;45.524;10.194;2024-02-14T12:13:24;101022.91;;;14.19;67.61
49759;BME280;70329;45.524;10.194;2024-02-14T12:15:51;101009.97;;;14.20;68.30
49759;BME280;70329;45.524;10.194;2024-02-14T12:18:20;101005.31;;;14.15;66.15
49759;BME280;70329;45.524;10.194;2024-02-14T12:20:47;100997.03;;;14.10;66.04
49759;BME280;70329;45.524;10.194;2024-02-14T12:23:17;100996.50;;;14.08;67.08
49759;BME280;70329;45.524;10.194;2024-02-14T12:25:44;100994.59;;;14.04;67.65
49759;BME280;70329;45.524;10.194;2024-02-14T12:28:13;100997.06;;;13.85;67.39
49759;BME280;70329;45.524;10.194;2024-02-14T12:30:43;100999.03;;;13.89;67.61
49759;BME280;70329;45.524;10.194;2024-02-14T12:33:11;101001.22;;;13.92;69.01
49759;BME280;70329;45.524;10.194;2024-02-14T12:35:42;101001.22;;;13.92;69.66
49759;BME280;70329;45.524;10.194;2024-02-14T12:38:09;101002.31;;;13.96;70.63
49759;BME280;70329;45.524;10.194;2024-02-14T12:40:36;101003.69;;;14.04;70.46
49759;BME280;70329;45.524;10.194;2024-02-14T12:43:03;101004.78;;;14.03;71.57